首页
METAR-TAF:

METAR-TAF

机场 :

长沙黄花国际机场

长沙, 中华人民共和国

纬度: 28-11N, 经度: 113-13E, 海拔: 66米

当前天气观测

该预报发布于26分钟前的06:00 UTC
风速4节,风向北转西北,在西转西北北转东北之间变化
温度 7°C
湿度 57%
气压 1034 hPa
能見度: 4000
少量云层高于2700英尺

METAR: ZGHA 120600Z 34002MPS 290V030 4000 HZ FEW027 07/M01 Q1034 NOSIG

时间: 14:26 (06:26 UTC)

预报

该预报发布于4小时和24分钟前的02:02 UTC
预报有效从12日的 06点(UTC)到 13日的 06点(UTC)
风速8节,风向
能見度: 3500
散云层高于2000英尺
轻雾
成为
从 12日的 21点(UTC)到 12日的 22点(UTC)
能見度: 2000
成为
从 13日的 01点(UTC)到 13日的 02点(UTC)
能見度: 3500

TAF: ZGHA 120202Z 1206/1306 35004MPS 3500 BR SCT020 TX07/1207Z TN02/1222Z BECMG 1221/1222 2000 BECMG 1301/1302 3500

超过4000个机场的气象观测和天气预报(METAR&TAF报告)。

可查询的气象台以黄色和红色小点在地图上表示。

将鼠标移到小点上方,可查看气象台名称。

然后点击查看天气观测和预报。

如需切换地图:点击带黑十字的绿色按钮放大地图;点击带横线的绿色按钮缩小地图;或者点击绿色箭头查看邻近地区的地图。


METAR-TAF: